Time,TemperatureF,DewpointF,PressureIn,WindDirection,WindDirectionDegrees,WindSpeedMPH,WindSpeedGustMPH,Humidity,HourlyPrecipIn,Conditions,Clouds,dailyrainin,SolarRadiationWatts/m^2,SoftwareType,DateUTC
2013-03-09 00:00:00,61.4,58.4,29.91,SW,234,1.0,5.0,90,0.00,RA,SCT,0.00,0.0,WeatherDisplay:10.37,2013-03-09 10:00:00,
2013-03-09 00:10:00,60.9,57.0,29.91,ESE,110,2.0,5.0,87,0.00,CLR,SCT,0.00,0.0,WeatherDisplay:10.37,2013-03-09 10:10:00,
2013-03-09 00:20:00,60.6,56.7,29.91,ESE,114,3.0,5.0,87,0.00,FEW,SCT,0.00,0.0,WeatherDisplay:10.37,2013-03-09 10:20:00,
2013-03-09 00:30:00,60.4,56.5,29.91,ESE,117,3.0,5.0,87,0.00,FEW,SCT,0.00,0.0,WeatherDisplay:10.37,2013-03-09 10:30:00,
2013-03-09 00:40:00,60.3,56.4,29.91,ESE,109,0.0,3.0,87,0.00,FEW,SCT,0.00,0.0,WeatherDisplay:10.37,2013-03-09 10:40:00,
2013-03-09 00:50:00,60.0,56.2,29.90,ESE,104,1.0,5.0,87,0.00,FEW,SCT,0.00,0.0,WeatherDisplay:10.37,2013-03-09 10:50:00,
2013-03-09 01:00:00,59.8,56.3,29.90,ESE,104,1.0,3.0,88,0.00,FEW,SCT,0.00,0.0,WeatherDisplay:10.37,2013-03-09 11:00:00,
2013-03-09 01:10:00,59.8,55.9,29.90,ESE,106,2.0,4.0,87,0.00,FEW,SCT,0.00,0.0,WeatherDisplay:10.37,2013-03-09 11:10:00,
2013-03-09 01:20:00,60.0,56.1,29.89,ESE,110,1.0,4.0,87,0.00,BKN,SCT,0.00,0.0,WeatherDisplay:10.37,2013-03-09 11:20:00,
2013-03-09 01:30:00,60.2,55.7,29.89,ESE,110,1.0,3.0,85,0.00,BKN,SCT,0.00,0.0,WeatherDisplay:10.37,2013-03-09 11:30:00,
2013-03-09 01:40:00,60.2,55.7,29.89,ESE,110,1.0,3.0,85,0.00,BKN,SCT,0.00,0.0,WeatherDisplay:10.37,2013-03-09 11:40:00,
2013-03-09 01:50:00,59.9,55.4,29.88,ESE,110,1.0,4.0,85,0.00,BKN,SCT,0.00,0.0,WeatherDisplay:10.37,2013-03-09 11:50:00,
2013-03-09 02:00:00,59.7,55.2,29.88,ESE,110,0.0,4.0,85,0.00,BKN,SCT,0.00,0.0,WeatherDisplay:10.37,2013-03-09 12:00:00,
2013-03-09 02:10:00,59.7,55.1,29.87,ESE,114,0.0,4.0,85,0.00,BKN,SCT,0.00,0.0,WeatherDisplay:10.37,2013-03-09 12:10:00,
2013-03-09 02:20:00,59.5,54.6,29.87,ESE,114,0.0,3.0,84,0.00,OVC,SCT,0.00,0.0,WeatherDisplay:10.37,2013-03-09 12:20:00,
2013-03-09 02:30:00,59.1,54.6,29.87,ESE,114,1.0,3.0,85,0.00,OVC,SCT,0.00,0.0,WeatherDisplay:10.37,2013-03-09 12:30:00,
2013-03-09 02:40:00,58.9,54.4,29.87,ESE,114,1.0,2.0,85,0.00,OVC,SCT,0.00,0.0,WeatherDisplay:10.37,2013-03-09 12:40:00,
2013-03-09 02:50:00,58.8,54.6,29.86,ESE,114,0.0,3.0,86,0.00,OVC,SCT,0.00,0.0,WeatherDisplay:10.37,2013-03-09 12:50:00,
2013-03-09 03:00:00,58.8,54.3,29.85,ESE,114,1.0,4.0,85,0.00,OVC,SCT,0.00,0.0,WeatherDisplay:10.37,2013-03-09 13:00:00,
2013-03-09 03:10:00,58.7,54.2,29.85,ESE,114,1.0,4.0,85,0.00,OVC,SCT,0.00,0.0,WeatherDisplay:10.37,2013-03-09 13:10:00,
2013-03-09 03:20:00,58.5,53.7,29.85,ESE,114,3.0,5.0,84,0.00,BKN,SCT,0.00,0.0,WeatherDisplay:10.37,2013-03-09 13:20:00,
2013-03-09 03:30:00,58.3,53.5,29.85,ESE,114,0.0,3.0,84,0.00,BKN,SCT,0.00,0.0,WeatherDisplay:10.37,2013-03-09 13:30:00,
2013-03-09 03:40:00,57.9,53.4,29.84,ESE,114,0.0,3.0,85,0.00,BKN,SCT,0.00,0.0,WeatherDisplay:10.37,2013-03-09 13:40:00,
2013-03-09 03:50:00,57.6,53.5,29.84,ESE,114,0.0,3.0,86,0.00,BKN,SCT,0.00,0.0,WeatherDisplay:10.37,2013-03-09 13:50:00,
2013-03-09 04:00:00,57.4,53.2,29.84,ESE,114,0.0,4.0,86,0.00,BKN,SCT,0.00,0.0,WeatherDisplay:10.37,2013-03-09 14:00:00,
2013-03-09 04:10:00,57.5,53.7,29.84,ESE,114,2.0,3.0,87,0.00,BKN,SCT,0.00,0.0,WeatherDisplay:10.37,2013-03-09 14:10:00,
2013-03-09 04:20:00,57.9,54.4,29.84,SSE,154,1.0,5.0,88,0.00,FEW,SCT,0.00,0.0,WeatherDisplay:10.37,2013-03-09 14:20:00,
2013-03-09 04:30:00,58.4,55.8,29.84,South,172,3.0,5.0,91,0.00,FEW,SCT,0.00,0.0,WeatherDisplay:10.37,2013-03-09 14:30:00,
2013-03-09 04:40:00,58.8,56.2,29.84,South,172,1.0,5.0,91,0.00,FEW,SCT,0.00,0.0,WeatherDisplay:10.37,2013-03-09 14:40:00,
2013-03-09 04:50:00,59.2,55.7,29.83,ESE,122,1.0,5.0,88,0.00,FEW,SCT,0.00,0.0,WeatherDisplay:10.37,2013-03-09 14:50:00,
2013-03-09 05:00:00,59.3,54.8,29.83,ESE,121,0.0,4.0,85,0.00,FEW,SCT,0.00,0.0,WeatherDisplay:10.37,2013-03-09 15:00:00,
2013-03-09 05:10:00,58.9,53.8,29.83,ESE,104,2.0,6.0,83,0.00,FEW,SCT,0.00,0.0,WeatherDisplay:10.37,2013-03-09 15:10:00,
2013-03-09 05:20:00,58.9,53.7,29.83,ESE,104,2.0,4.0,83,0.00,BKN,SCT,0.00,0.0,WeatherDisplay:10.37,2013-03-09 15:20:00,
2013-03-09 05:30:00,58.5,53.4,29.83,ESE,105,0.0,4.0,83,0.00,BKN,SCT,0.00,0.0,WeatherDisplay:10.37,2013-03-09 15:30:00,
2013-03-09 05:40:00,58.0,52.9,29.84,ESE,106,0.0,4.0,83,0.00,BKN,SCT,0.00,0.0,WeatherDisplay:10.37,2013-03-09 15:40:00,
2013-03-09 05:50:00,57.5,52.7,29.84,ESE,106,0.0,2.0,84,0.00,BKN,SCT,0.00,0.0,WeatherDisplay:10.37,2013-03-09 15:50:00,
2013-03-09 06:00:00,57.2,52.7,29.84,ESE,106,0.0,3.0,85,0.00,BKN,SCT,0.00,0.0,WeatherDisplay:10.37,2013-03-09 16:00:00,
2013-03-09 06:10:00,56.9,52.8,29.84,East,101,3.0,4.0,86,0.00,CLR,SCT,0.00,0.0,WeatherDisplay:10.37,2013-03-09 16:10:00,
2013-03-09 06:20:00,56.8,52.6,29.84,East,88,1.0,3.0,86,0.00,CLR,SCT,0.00,0.0,WeatherDisplay:10.37,2013-03-09 16:20:00,
2013-03-09 06:30:00,56.6,53.1,29.84,East,91,3.0,5.0,88,0.00,CLR,SCT,0.00,0.0,WeatherDisplay:10.37,2013-03-09 16:30:00,
2013-03-09 06:40:00,56.8,53.3,29.84,East,101,0.0,4.0,88,0.00,CLR,SCT,0.00,0.0,WeatherDisplay:10.37,2013-03-09 16:40:00,
2013-03-09 06:50:00,56.8,53.3,29.85,East,86,3.0,4.0,88,0.00,CLR,SCT,0.00,0.0,WeatherDisplay:10.37,2013-03-09 16:50:00,
2013-03-09 07:00:00,56.9,53.4,29.85,ENE,75,0.0,3.0,88,0.00,CLR,SCT,0.00,0.1,WeatherDisplay:10.37,2013-03-09 17:00:00,
2013-03-09 07:10:00,57.0,53.4,29.86,ENE,75,0.0,2.0,88,0.00,SCT,SCT,0.00,0.2,WeatherDisplay:10.37,2013-03-09 17:10:00,
2013-03-09 07:20:00,57.6,54.0,29.86,ENE,75,0.0,3.0,88,0.00,SCT,SCT,0.00,0.8,WeatherDisplay:10.37,2013-03-09 17:20:00,
2013-03-09 07:30:00,58.6,54.8,29.87,ENE,70,2.0,7.0,87,0.00,SCT,SCT,0.00,6.7,WeatherDisplay:10.37,2013-03-09 17:30:00,
2013-03-09 07:40:00,60.1,55.9,29.87,ENE,70,0.0,3.0,86,0.00,SCT,SCT,0.00,11.7,WeatherDisplay:10.37,2013-03-09 17:40:00,
2013-03-09 07:50:00,61.6,57.4,29.87,ENE,70,1.0,3.0,86,0.00,SCT,SCT,0.00,20.1,WeatherDisplay:10.37,2013-03-09 17:50:00,
2013-03-09 08:00:00,63.2,57.9,29.88,ENE,73,0.0,4.0,83,0.00,SCT,SCT,0.00,27.9,WeatherDisplay:10.37,2013-03-09 18:00:00,
2013-03-09 08:10:00,64.6,58.6,29.88,ENE,73,1.0,3.0,81,0.00,SCT,SCT,0.00,35.8,WeatherDisplay:10.37,2013-03-09 18:10:00,
2013-03-09 08:20:00,67.1,59.7,29.88,ENE,76,1.0,4.0,77,0.00,SCT,SCT,0.00,48.5,WeatherDisplay:10.37,2013-03-09 18:20:00,
2013-03-09 08:30:00,68.8,59.8,29.88,East,79,0.0,3.0,73,0.00,SCT,SCT,0.00,63.1,WeatherDisplay:10.37,2013-03-09 18:30:00,
2013-03-09 08:40:00,70.9,59.0,29.88,East,80,3.0,5.0,66,0.00,SCT,SCT,0.00,80.2,WeatherDisplay:10.37,2013-03-09 18:40:00,
2013-03-09 08:50:00,72.1,57.5,29.88,ENE,65,5.0,7.0,60,0.00,SCT,SCT,0.00,99.3,WeatherDisplay:10.37,2013-03-09 18:50:00,
2013-03-09 09:00:00,72.8,58.1,29.89,NE,34,1.0,5.0,60,0.00,SCT,SCT,0.00,121.0,WeatherDisplay:10.37,2013-03-09 19:00:00,
2013-03-09 09:10:00,73.7,59.0,29.89,NNE,29,0.0,4.0,60,0.00,SCT,SCT,0.00,145.7,WeatherDisplay:10.37,2013-03-09 19:10:00,
2013-03-09 09:20:00,74.9,60.5,29.89,West,270,6.0,10.0,61,0.00,SCT,SCT,0.00,171.8,WeatherDisplay:10.37,2013-03-09 19:20:00,
2013-03-09 09:30:00,75.5,59.2,29.89,WSW,241,9.0,15.0,57,0.00,SCT,SCT,0.00,197.7,WeatherDisplay:10.37,2013-03-09 19:30:00,
2013-03-09 09:40:00,75.2,59.0,29.88,WSW,238,12.0,20.0,57,0.00,SCT,SCT,0.00,226.7,WeatherDisplay:10.37,2013-03-09 19:40:00,
2013-03-09 09:50:00,75.3,59.5,29.88,WSW,239,12.0,21.0,58,0.00,SCT,SCT,0.00,257.0,WeatherDisplay:10.37,2013-03-09 19:50:00,
2013-03-09 10:00:00,75.8,59.0,29.88,SW,233,12.0,20.0,56,0.00,SCT,SCT,0.00,292.7,WeatherDisplay:10.37,2013-03-09 20:00:00,
2013-03-09 10:10:00,75.9,59.6,29.88,SW,232,15.0,21.0,57,0.00,SCT,SCT,0.00,327.6,WeatherDisplay:10.37,2013-03-09 20:10:00,
2013-03-09 10:20:00,76.3,58.4,29.89,WSW,244,14.0,20.0,54,0.00,SCT,SCT,0.00,364.8,WeatherDisplay:10.37,2013-03-09 20:20:00,
2013-03-09 10:30:00,76.2,60.3,29.89,WSW,239,12.0,20.0,58,0.00,SCT,SCT,0.00,396.8,WeatherDisplay:10.37,2013-03-09 20:30:00,
2013-03-09 10:40:00,76.6,59.2,29.88,WSW,250,10.0,20.0,55,0.00,SCT,SCT,0.00,425.9,WeatherDisplay:10.37,2013-03-09 20:40:00,
2013-03-09 10:50:00,76.7,60.4,29.88,SW,236,12.0,19.0,57,0.00,SCT,SCT,0.00,451.9,WeatherDisplay:10.37,2013-03-09 20:50:00,
2013-03-09 11:00:00,76.4,59.0,29.88,SW,236,10.0,23.0,55,0.00,SCT,SCT,0.00,517.6,WeatherDisplay:10.37,2013-03-09 21:00:00,
2013-03-09 11:10:00,77.8,57.7,29.87,SW,228,10.0,20.0,50,0.00,SCT,SCT,0.00,519.0,WeatherDisplay:10.37,2013-03-09 21:10:00,
2013-03-09 11:20:00,78.3,56.4,29.87,SW,224,15.0,21.0,47,0.00,SCT,SCT,0.00,565.6,WeatherDisplay:10.37,2013-03-09 21:20:00,
2013-03-09 11:30:00,76.4,57.0,29.87,SW,226,12.0,22.0,51,0.00,SCT,SCT,0.00,663.9,WeatherDisplay:10.37,2013-03-09 21:30:00,
2013-03-09 11:40:00,77.1,59.2,29.87,SW,233,15.0,23.0,54,0.00,SCT,SCT,0.00,562.1,WeatherDisplay:10.37,2013-03-09 21:40:00,
2013-03-09 11:50:00,77.8,58.8,29.86,WSW,237,13.0,21.0,52,0.00,SCT,SCT,0.00,596.4,WeatherDisplay:10.37,2013-03-09 21:50:00,
2013-03-09 12:00:00,78.5,58.3,29.86,SW,225,13.0,22.0,50,0.00,SCT,SCT,0.00,615.7,WeatherDisplay:10.37,2013-03-09 22:00:00,
2013-03-09 12:10:00,79.0,56.4,29.85,SW,227,13.0,20.0,46,0.00,SCT,SCT,0.00,624.9,WeatherDisplay:10.37,2013-03-09 22:10:00,
2013-03-09 12:20:00,79.1,57.2,29.84,SW,236,15.0,21.0,47,0.00,SCT,SCT,0.00,636.6,WeatherDisplay:10.37,2013-03-09 22:20:00,
2013-03-09 12:30:00,79.7,59.4,29.84,SW,222,12.0,20.0,50,0.00,SCT,SCT,0.00,598.2,WeatherDisplay:10.37,2013-03-09 22:30:00,
2013-03-09 12:40:00,79.7,56.5,29.83,SW,235,9.0,23.0,45,0.00,SCT,SCT,0.00,634.4,WeatherDisplay:10.37,2013-03-09 22:40:00,
2013-03-09 12:50:00,79.5,58.1,29.83,SW,234,13.0,21.0,48,0.00,SCT,SCT,0.00,647.5,WeatherDisplay:10.37,2013-03-09 22:50:00,
2013-03-09 13:00:00,79.3,59.6,29.83,SW,234,15.0,21.0,51,0.00,SCT,SCT,0.00,636.8,WeatherDisplay:10.37,2013-03-09 23:00:00,
2013-03-09 13:10:00,79.5,58.6,29.82,SW,226,15.0,23.0,49,0.00,-RA,SCT,0.00,617.4,WeatherDisplay:10.37,2013-03-09 23:10:00,
2013-03-09 13:20:00,78.9,59.3,29.83,WSW,237,16.0,24.0,51,0.00,-RA,SCT,0.00,591.8,WeatherDisplay:10.37,2013-03-09 23:20:00,
2013-03-09 13:30:00,78.3,60.8,29.82,WSW,243,17.0,25.0,55,0.00,-RA,SCT,0.00,571.5,WeatherDisplay:10.37,2013-03-09 23:30:00,
2013-03-09 13:40:00,78.2,61.3,29.82,WSW,237,18.0,26.0,56,0.00,-RA,SCT,0.00,551.8,WeatherDisplay:10.37,2013-03-09 23:40:00,
2013-03-09 13:50:00,78.1,60.6,29.81,SW,231,14.0,23.0,55,0.00,-RA,SCT,0.00,526.5,WeatherDisplay:10.37,2013-03-09 23:50:00,
2013-03-09 14:00:00,78.3,62.3,29.81,SW,227,13.0,22.0,58,0.00,-RA,SCT,0.00,513.5,WeatherDisplay:10.37,2013-03-10 00:00:00,
2013-03-09 14:10:00,77.5,59.0,29.81,WSW,239,15.0,24.0,53,0.00,SCT,SCT,0.00,481.5,WeatherDisplay:10.37,2013-03-10 00:10:00,
2013-03-09 14:20:00,78.0,62.0,29.81,WSW,248,13.0,22.0,58,0.00,SCT,SCT,0.00,447.5,WeatherDisplay:10.37,2013-03-10 00:20:00,
2013-03-09 14:30:00,77.8,60.9,29.80,SW,234,14.0,24.0,56,0.00,SCT,SCT,0.00,418.2,WeatherDisplay:10.37,2013-03-10 00:30:00,
2013-03-09 14:40:00,77.4,62.4,29.80,WSW,241,13.0,27.0,60,0.00,SCT,SCT,0.00,388.5,WeatherDisplay:10.37,2013-03-10 00:40:00,
2013-03-09 14:50:00,77.5,62.5,29.80,WSW,240,14.0,21.0,60,0.00,SCT,SCT,0.00,357.7,WeatherDisplay:10.37,2013-03-10 00:50:00,
2013-03-09 15:00:00,76.5,62.5,29.80,WSW,241,10.0,22.0,62,0.00,SCT,SCT,0.00,318.8,WeatherDisplay:10.37,2013-03-10 01:00:00,
2013-03-09 15:10:00,77.1,62.1,29.80,SW,231,16.0,24.0,60,0.00,SCT,SCT,0.00,296.1,WeatherDisplay:10.37,2013-03-10 01:10:00,
2013-03-09 15:20:00,76.1,60.7,29.80,SW,231,17.0,26.0,59,0.00,SCT,SCT,0.00,170.8,WeatherDisplay:10.37,2013-03-10 01:20:00,
2013-03-09 15:30:00,75.9,61.0,29.80,SW,222,13.0,24.0,60,0.00,SCT,SCT,0.00,144.7,WeatherDisplay:10.37,2013-03-10 01:30:00,
2013-03-09 15:40:00,75.0,61.1,29.79,SW,226,9.0,23.0,62,0.00,SCT,SCT,0.00,159.5,WeatherDisplay:10.37,2013-03-10 01:40:00,
2013-03-09 15:50:00,75.3,60.5,29.80,WSW,238,12.0,23.0,60,0.00,SCT,SCT,0.00,227.5,WeatherDisplay:10.37,2013-03-10 01:50:00,
2013-03-09 16:00:00,76.8,60.9,29.79,WSW,238,12.0,23.0,58,0.00,SCT,SCT,0.00,123.7,WeatherDisplay:10.37,2013-03-10 02:00:00,
2013-03-09 16:10:00,76.8,59.9,29.80,SW,234,15.0,25.0,56,0.00,SCT,SCT,0.00,154.4,WeatherDisplay:10.37,2013-03-10 02:10:00,
2013-03-09 16:20:00,77.2,60.8,29.80,WSW,238,12.0,23.0,57,0.00,SCT,SCT,0.00,84.6,WeatherDisplay:10.37,2013-03-10 02:20:00,
2013-03-09 16:30:00,75.9,59.6,29.80,SW,236,15.0,27.0,57,0.00,SCT,SCT,0.00,71.3,WeatherDisplay:10.37,2013-03-10 02:30:00,
2013-03-09 16:40:00,74.4,60.0,29.80,SW,232,13.0,25.0,61,0.00,SCT,SCT,0.00,24.8,WeatherDisplay:10.37,2013-03-10 02:40:00,
2013-03-09 16:50:00,72.8,60.8,29.80,SW,228,15.0,27.0,66,0.00,SCT,SCT,0.00,16.7,WeatherDisplay:10.37,2013-03-10 02:50:00,
2013-03-09 17:00:00,71.8,60.3,29.81,SW,233,13.0,23.0,67,0.00,SCT,SCT,0.00,11.0,WeatherDisplay:10.37,2013-03-10 03:00:00,
2013-03-09 17:10:00,71.3,61.8,29.81,SW,222,9.0,22.0,72,0.00,SCT,SCT,0.00,7.7,WeatherDisplay:10.37,2013-03-10 03:10:00,
2013-03-09 17:20:00,71.1,62.0,29.81,SW,223,12.0,17.0,73,0.00,BKN,SCT,0.00,4.5,WeatherDisplay:10.37,2013-03-10 03:20:00,
2013-03-09 17:30:00,70.2,61.9,29.82,SW,225,13.0,27.0,75,0.00,BKN,SCT,0.00,4.6,WeatherDisplay:10.37,2013-03-10 03:30:00,
2013-03-09 17:40:00,69.7,62.9,29.82,SW,216,12.0,18.0,79,0.00,BKN,SCT,0.00,1.6,WeatherDisplay:10.37,2013-03-10 03:40:00,
2013-03-09 17:50:00,68.9,60.3,29.82,SW,215,9.0,20.0,74,0.00,BKN,SCT,0.00,0.6,WeatherDisplay:10.37,2013-03-10 03:50:00,
2013-03-09 18:00:00,68.2,61.8,29.82,SW,217,9.0,18.0,80,0.00,BKN,SCT,0.00,0.4,WeatherDisplay:10.37,2013-03-10 04:00:00,
2013-03-09 18:10:00,68.1,62.0,29.83,SW,226,9.0,17.0,81,0.00,BKN,SCT,0.00,0.2,WeatherDisplay:10.37,2013-03-10 04:10:00,
2013-03-09 18:20:00,68.2,61.8,29.83,SW,221,14.0,21.0,80,0.00,BKN,SCT,0.00,0.0,WeatherDisplay:10.37,2013-03-10 04:20:00,
2013-03-09 18:30:00,68.3,62.2,29.83,SW,228,9.0,18.0,81,0.00,BKN,SCT,0.00,0.0,WeatherDisplay:10.37,2013-03-10 04:30:00,
2013-03-09 18:40:00,68.2,62.5,29.84,SSW,208,9.0,20.0,82,0.00,BKN,SCT,0.00,0.0,WeatherDisplay:10.37,2013-03-10 04:40:00,
2013-03-09 18:50:00,68.0,62.3,29.84,SW,215,7.0,13.0,82,0.00,BKN,SCT,0.00,0.0,WeatherDisplay:10.37,2013-03-10 04:50:00,
2013-03-09 19:00:00,67.3,63.7,29.84,SW,228,7.0,13.0,88,0.00,BKN,SCT,0.00,0.0,WeatherDisplay:10.37,2013-03-10 05:00:00,
2013-03-09 19:10:00,66.6,63.6,29.85,SW,230,5.0,13.0,90,0.00,BKN,SCT,0.00,0.0,WeatherDisplay:10.37,2013-03-10 05:10:00,
2013-03-09 19:20:00,66.2,63.5,29.85,SW,233,6.0,12.0,91,0.00,BKN,SCT,0.00,0.0,WeatherDisplay:10.37,2013-03-10 05:20:00,
2013-03-09 19:30:00,66.1,63.7,29.85,SW,231,7.0,13.0,92,0.00,BKN,SCT,0.00,0.0,WeatherDisplay:10.37,2013-03-10 05:30:00,
2013-03-09 19:40:00,65.9,63.5,29.85,SW,231,6.0,13.0,92,0.00,BKN,SCT,0.00,0.0,WeatherDisplay:10.37,2013-03-10 05:40:00,
2013-03-09 19:50:00,65.7,63.3,29.86,SW,220,5.0,13.0,92,0.00,BKN,SCT,0.00,0.0,WeatherDisplay:10.37,2013-03-10 05:50:00,
2013-03-09 20:00:00,65.6,63.2,29.86,South,180,5.0,10.0,92,0.00,BKN,SCT,0.00,0.0,WeatherDisplay:10.37,2013-03-10 06:00:00,
2013-03-09 20:10:00,65.6,63.2,29.87,South,187,7.0,12.0,92,0.00,BKN,SCT,0.00,0.0,WeatherDisplay:10.37,2013-03-10 06:10:00,
2013-03-09 20:20:00,65.3,62.9,29.88,SW,224,6.0,15.0,92,0.00,OVC,SCT,0.00,0.0,WeatherDisplay:10.37,2013-03-10 06:20:00,
2013-03-09 20:30:00,65.0,62.9,29.88,SW,217,3.0,12.0,93,0.02,RA,SCT,0.02,0.0,WeatherDisplay:10.37,2013-03-10 06:30:00,
2013-03-09 20:40:00,64.3,61.3,29.89,SSW,198,5.0,14.0,90,0.22,RA,SCT,0.25,0.0,WeatherDisplay:10.37,2013-03-10 06:40:00,
2013-03-09 20:50:00,62.9,60.0,29.89,SSE,167,5.0,9.0,90,0.18,RA,SCT,0.42,0.0,WeatherDisplay:10.37,2013-03-10 06:50:00,
2013-03-09 21:00:00,62.4,60.1,29.90,South,188,8.0,13.0,92,0.08,RA,SCT,0.50,0.0,WeatherDisplay:10.37,2013-03-10 07:00:00,
2013-03-09 21:10:00,62.0,59.3,29.89,SSW,192,6.0,14.0,91,0.08,RA,SCT,0.58,0.0,WeatherDisplay:10.37,2013-03-10 07:10:00,
2013-03-09 21:20:00,61.6,59.3,29.90,SSW,205,6.0,12.0,92,0.05,RA,SCT,0.64,0.0,WeatherDisplay:10.37,2013-03-10 07:20:00,
2013-03-09 21:40:00,61.6,59.6,29.90,SW,221,1.0,8.0,93,0.03,RA,SCT,0.69,0.0,WeatherDisplay:10.37,2013-03-10 07:40:00,
2013-03-09 21:50:00,61.9,60.2,29.90,SW,225,9.0,12.0,94,0.01,RA,SCT,0.70,0.0,WeatherDisplay:10.37,2013-03-10 07:50:00,
2013-03-09 22:00:00,62.1,60.7,29.90,SSW,211,5.0,10.0,95,0.00,OVC,SCT,0.70,0.0,WeatherDisplay:10.37,2013-03-10 08:00:00,
2013-03-09 22:10:00,62.2,60.7,29.90,SSW,193,3.0,7.0,95,0.00,OVC,SCT,0.70,0.0,WeatherDisplay:10.37,2013-03-10 08:10:00,
2013-03-09 22:20:00,62.2,60.8,29.90,SSE,165,6.0,9.0,95,0.00,OVC,SCT,0.70,0.0,WeatherDisplay:10.37,2013-03-10 08:20:00,
2013-03-09 22:30:00,62.0,60.3,29.90,South,177,5.0,12.0,94,0.00,OVC,SCT,0.70,0.0,WeatherDisplay:10.37,2013-03-10 08:30:00,
2013-03-09 22:40:00,62.0,60.2,29.90,SSE,159,5.0,9.0,94,0.00,OVC,SCT,0.70,0.0,WeatherDisplay:10.37,2013-03-10 08:40:00,
2013-03-09 22:50:00,62.0,60.3,29.90,SE,142,6.0,13.0,94,0.00,OVC,SCT,0.70,0.0,WeatherDisplay:10.37,2013-03-10 08:50:00,
2013-03-09 23:00:00,62.1,60.4,29.89,SSE,154,3.0,9.0,94,0.00,OVC,SCT,0.70,0.0,WeatherDisplay:10.37,2013-03-10 09:00:00,
2013-03-09 23:10:00,62.2,60.5,29.89,South,174,5.0,9.0,94,0.00,BKN,SCT,0.70,0.0,WeatherDisplay:10.37,2013-03-10 09:10:00,
2013-03-09 23:20:00,62.2,60.5,29.88,South,171,6.0,9.0,94,0.00,BKN,SCT,0.70,0.0,WeatherDisplay:10.37,2013-03-10 09:20:00,
2013-03-09 23:30:00,62.3,60.2,29.88,South,175,6.0,12.0,93,0.00,BKN,SCT,0.70,0.0,WeatherDisplay:10.37,2013-03-10 09:30:00,
2013-03-09 23:40:00,62.3,60.2,29.88,SSE,166,2.0,9.0,93,0.00,BKN,SCT,0.70,0.0,WeatherDisplay:10.37,2013-03-10 09:40:00,
2013-03-09 23:50:00,62.3,60.2,29.88,South,185,6.0,8.0,93,0.00,BKN,SCT,0.70,0.0,WeatherDisplay:10.37,2013-03-10 09:50:00,